• Join FlightAware (Why Join?)
  • Login
  • US Flag GB Flag 
09:20 EST


 

Airport Tracker/Info


-or-


 

Live Flight TrackerFlight Track Log ✈ N8559W ✈ 12-May-2013 ✈ KEYW - KAPF

Flight Track Log - Related Links

Times and Time Zones

All times are in EDT time to prevent confusion due to time zone crossing. See the N8559W flight status page for this flight to view local times or setup timezone preferences in your user account.

Time Position Orientation Groundspeed Altitude Reporting Facility
EDT Latitude Longitude Course Direction KTS MPH feet Rate Location/Type
08:38 24.7564 -81.8053 335° Northwest 108 124 4,600  Level Miami Center
08:39 24.7132 -81.8643 329° Northwest  Level FlightAware Approximate
08:39 24.7853 -81.8178 339° North 108 124 5,100  Level Miami Center
08:40 24.7408 -81.8827 329° Northwest  Level FlightAware Approximate
08:40 24.8075 -81.8347 325° Northwest 108 124 5,500  Level Miami Center
08:41 24.7683 -81.9013 324° Northwest  Level FlightAware Approximate
08:41 24.8300 -81.8564 319° Northwest 116 133 6,000  Level Miami Center
08:42 24.7944 -81.9222 324° Northwest  Level FlightAware Approximate
08:42 24.8567 -81.8642 345° North 111 128 6,400  Level Miami Center
08:43 24.8205 -81.9430 324° Northwest  Level FlightAware Approximate
08:43 24.8814 -81.8789 332° Northwest 98 113 6,800  Level Miami Center
08:44 24.9017 -81.8981 319° Northwest 98 113 7,100 120 Climbing Miami Center
08:45 24.9261 -81.9106 335° Northwest 98 113 7,100  Level Miami Center
08:46 24.9525 -81.9322 323° Northwest 98 113 7,100  Level Miami Center
08:47 24.9772 -81.9447 335° Northwest 98 113 7,100  Level Miami Center
08:48 25.0089 -81.9369 13° North 98 113 7,100  Level Miami Center
08:49 25.0383 -81.9289 14° North 103 119 7,100  Level Miami Center
08:50 25.0700 -81.9211 13° North 103 119 7,100  Level Miami Center
08:51 25.0975 -81.9083 23° Northeast 103 119 7,100  Level Miami Center
08:52 25.1269 -81.9028 10° North 103 119 7,100  Level Miami Center
08:53 25.1564 -81.8972 10° North 103 119 7,100  Level Miami Center
08:54 25.1878 -81.8939 North 103 119 7,100  Level Miami Center
08:55 25.2192 -81.8883 North 103 119 7,100  Level Miami Center
08:56 25.2489 -81.8803 14° North 103 119 7,100 -60 Level Miami Center
08:57 25.2783 -81.8722 14° North 103 119 7,000  Descending Miami Center
08:58 25.3097 -81.8689 North 103 119 7,100  Climbing Miami Center
08:59 25.3392 -81.8633 10° North 103 119 7,100  Level Miami Center
09:00 25.3708 -81.8553 13° North 108 124 7,100  Level Miami Center
09:01 25.4019 -81.8614 350° North 108 124 7,100  Level Miami Center
09:02 25.4331 -81.8650 354° North 108 124 7,100  Level Miami Center
09:03 25.4622 -81.8683 354° North 103 119 7,100  Level Miami Center
09:04 25.4933 -81.8697 358° North 103 119 7,100  Level Miami Center
09:05 25.5247 -81.8664 North 103 119 7,100  Level Miami Center
09:06 25.5586 -81.8586 12° North 103 119 7,100 -180 Level Miami Center
09:07 25.5900 -81.8506 13° North 103 119 6,800 -360 Descending Miami Center
09:08 25.6258 -81.8475 North 108 124 6,400 -420 Descending Miami Center
09:09 25.6592 -81.8442 North 113 130 6,000 -420 Descending Miami Center
09:10 25.6947 -81.8411 North 119 137 5,600 -360 Descending Miami Center
09:11 25.7283 -81.8356 North 124 143 5,300 -420 Descending Miami Center
09:12 25.7661 -81.8325 North 124 143 4,800 -480 Descending Miami Center
09:13 25.7997 -81.8247 12° North 124 143 4,400 -600 Descending Miami Center
09:14 25.8336 -81.8169 12° North 124 143 3,700 -600 Descending Miami Center
09:15 25.8672 -81.8067 15° North 124 143 3,200 -420 Descending Miami Center
09:16 25.9031 -81.7967 14° North 124 143 2,900 -300 Descending Miami Center
09:18 25.9354 -81.7913 North  Level FlightAware Approximate
09:25 26.1500 -81.7667 10° North  Level FlightAware Approximate
09:26 26.1524 -81.7756 10° North  Level Estimated
09:27 26.1524 -81.7756 10° North  Level Estimated
09:28 26.1524 -81.7756 10° North  Level Estimated
09:29 26.1524 -81.7756 10° North  Level Estimated
09:30 26.1524 -81.7756 10° North  Level Estimated
09:31 26.1524 -81.7756 10° North  Level Estimated
09:32 26.1524 -81.7756 10° North  Level Estimated
09:33 26.1524 -81.7756 10° North  Level Estimated